Time;durP1;ratioP1;P1;durP2;ratioP2;P2;SDS_P1;SDS_P2;PMS_P1;PMS_P2;Temp;Humidity;BMP_temperature;BMP_pressure;BME280_temperature;BME280_humidity;BME280_pressure;Samples;Min_cycle;Max_cycle;Signal;HPM_P1;HPM_P2
2022/02/10 00:19:51;;;;;;;2.55;1.63;;;;;;;;;;4982198;28;20181;-62
2022/02/10 00:22:32;;;;;;;2.83;0.98;;;;;;;;;;4994470;28;20261;-62
2022/02/10 00:35:50;;;;;;;2.00;1.05;;;;;;;;;;5011057;28;20575;-65
2022/02/10 00:38:18;;;;;;;1.70;1.13;;;;;;;;;;5005487;28;20133;-63
2022/02/10 00:40:44;;;;;;;1.52;1.17;;;;;;;;;;5010552;28;20145;-63
2022/02/10 00:43:10;;;;;;;2.30;1.23;;;;;;;;;;5011563;28;20113;-63
2022/02/10 00:45:35;;;;;;;1.10;1.00;;;;;;;;;;5008843;28;20030;-63
2022/02/10 00:48:04;;;;;;;1.65;0.95;;;;;;;;;;5001349;28;20330;-63
2022/02/10 00:50:30;;;;;;;1.40;1.23;;;;;;;;;;5012666;28;20034;-62
2022/02/10 00:53:07;;;;;;;1.92;1.10;;;;;;;;;;5025260;28;20102;-63
2022/02/10 00:55:35;;;;;;;2.33;0.95;;;;;;;;;;5033927;28;20052;-62
2022/02/10 00:58:04;;;;;;;1.73;1.35;;;;;;;;;;5033583;28;20442;-62
2022/02/10 01:30:11;;;;;;;2.30;1.10;;;;;;;;;;5022098;28;20482;-63
2022/02/10 01:32:37;;;;;;;1.15;1.05;;;;;;;;;;4986365;28;20049;-64
2022/02/10 01:35:06;;;;;;;2.85;1.13;;;;;;;;;;5000032;28;20034;-63
2022/02/10 01:37:31;;;;;;;1.40;1.00;;;;;;;;;;5010363;28;20065;-62
2022/02/10 01:40:06;;;;;;;1.10;1.00;;;;;;;;;;5018055;28;20069;-62
2022/02/10 02:03:19;;;;;;;1.90;1.00;;;;;;;;;;5031277;28;20032;-63
2022/02/10 02:04:09;;;;;;;2.05;1.00;;;;;;;;;;5032695;28;20032;-63
2022/02/10 02:06:42;;;;;;;1.58;1.02;;;;;;;;;;5031629;28;20021;-63
2022/02/10 02:09:11;;;;;;;1.90;1.00;;;;;;;;;;5031905;28;20021;-64
2022/02/10 02:11:39;;;;;;;3.20;0.82;;;;;;;;;;5031578;28;20025;-64
2022/02/10 02:14:05;;;;;;;1.60;0.70;;;;;;;;;;5028821;28;20037;-63
2022/02/10 02:16:30;;;;;;;1.73;1.05;;;;;;;;;;5021897;28;20033;-62
2022/02/10 02:18:55;;;;;;;0.82;0.80;;;;;;;;;;5027694;28;20068;-63
2022/02/10 02:21:20;;;;;;;0.80;0.80;;;;;;;;;;5025671;28;20075;-62
2022/02/10 02:23:46;;;;;;;2.17;0.80;;;;;;;;;;5031512;28;20040;-62
2022/02/10 02:26:16;;;;;;;2.80;0.90;;;;;;;;;;5032600;28;20014;-62
2022/02/10 02:28:45;;;;;;;1.10;1.00;;;;;;;;;;5031539;28;20087;-63
2022/02/10 02:31:16;;;;;;;1.38;0.80;;;;;;;;;;5020373;28;20040;-63
2022/02/10 03:08:19;;;;;;;2.25;1.00;;;;;;;;;;5042918;28;20021;-63
2022/02/10 03:13:17;;;;;;;1.92;1.10;;;;;;;;;;5034091;28;20083;-62
2022/02/10 03:16:05;;;;;;;1.23;1.00;;;;;;;;;;5029021;28;20120;-64
2022/02/10 04:12:21;;;;;;;1.55;1.45;;;;;;;;;;5029404;28;20470;-62
2022/02/10 04:15:32;;;;;;;2.20;2.00;;;;;;;;;;5023691;28;20078;-64
2022/02/10 04:22:52;;;;;;;2.17;1.52;;;;;;;;;;5022322;28;20037;-63
2022/02/10 04:30:59;;;;;;;3.33;1.60;;;;;;;;;;5035953;28;20094;-63
2022/02/10 04:58:08;;;;;;;1.58;1.10;;;;;;;;;;5010019;28;20521;-61
2022/02/10 05:19:49;;;;;;;3.28;2.03;;;;;;;;;;4995273;28;20399;-62
2022/02/10 05:35:22;;;;;;;3.25;1.95;;;;;;;;;;5022393;28;20038;-62
2022/02/10 05:37:57;;;;;;;2.75;2.20;;;;;;;;;;5022592;28;20120;-63
2022/02/10 05:43:29;;;;;;;2.78;1.63;;;;;;;;;;5036491;28;20388;-63
2022/02/10 05:56:11;;;;;;;2.58;1.80;;;;;;;;;;5022583;28;20598;-62
2022/02/10 06:40:27;;;;;;;5.72;2.42;;;;;;;;;;5032443;28;20040;-63
2022/02/10 07:02:57;;;;;;;4.13;1.92;;;;;;;;;;5030515;28;20024;-63
2022/02/10 08:56:23;;;;;;;3.03;1.23;;;;;;;;;;4925007;29;20048;-63
2022/02/10 08:59:10;;;;;;;4.60;1.08;;;;;;;;;;4921117;29;20052;-63
2022/02/10 09:01:48;;;;;;;2.22;1.08;;;;;;;;;;4923034;29;20148;-62
2022/02/10 09:12:21;;;;;;;3.17;1.30;;;;;;;;;;4963967;28;20478;-60
2022/02/10 09:20:17;;;;;;;3.10;1.45;;;;;;;;;;4953841;28;20220;-61
2022/02/10 10:00:50;;;;;;;1.57;0.60;;;;;;;;;;5048570;28;20025;-60
2022/02/10 10:02:55;;;;;;;1.92;0.75;;;;;;;;;;5020038;28;20613;-61
2022/02/10 10:11:28;;;;;;;1.60;0.93;;;;;;;;;;4949352;28;20488;-60
2022/02/10 10:13:47;;;;;;;2.83;0.93;;;;;;;;;;4958718;28;20042;-60
2022/02/10 10:19:09;;;;;;;2.22;1.20;;;;;;;;;;4934904;28;20042;-61
2022/02/10 10:22:00;;;;;;;2.38;1.00;;;;;;;;;;4948525;28;20035;-59
2022/02/10 10:25:02;;;;;;;2.97;1.20;;;;;;;;;;4947690;28;20115;-62
2022/02/10 10:54:20;;;;;;;4.95;2.22;;;;;;;;;;5038109;28;20107;-62
2022/02/10 10:56:49;;;;;;;4.55;2.15;;;;;;;;;;5025027;28;20052;-63
2022/02/10 11:37:41;;;;;;;4.35;2.40;;;;;;;;;;5036369;28;20548;-63
2022/02/10 11:40:13;;;;;;;7.22;2.83;;;;;;;;;;5034331;28;20037;-63
2022/02/10 11:42:49;;;;;;;3.28;2.13;;;;;;;;;;5033909;28;20420;-63
2022/02/10 11:48:31;;;;;;;4.05;2.50;;;;;;;;;;5038230;28;20022;-62
2022/02/10 12:29:26;;;;;;;5.22;2.85;;;;;;;;;;5033590;28;20028;-62
2022/02/10 12:39:00;;;;;;;5.53;3.78;;;;;;;;;;5032179;28;20449;-63
2022/02/10 13:48:04;;;;;;;8.52;5.50;;;;;;;;;;5041516;28;20028;-61
2022/02/10 13:48:57;;;;;;;9.40;4.93;;;;;;;;;;5023356;28;20033;-62
2022/02/10 14:14:41;;;;;;;7.35;4.88;;;;;;;;;;5009137;28;20073;-61
2022/02/10 14:17:10;;;;;;;8.75;5.55;;;;;;;;;;5021212;28;20042;-61
2022/02/10 14:22:08;;;;;;;6.38;4.78;;;;;;;;;;5000055;28;20077;-61
2022/02/10 14:27:19;;;;;;;7.03;4.68;;;;;;;;;;5012341;28;20488;-62
2022/02/10 14:29:44;;;;;;;8.55;5.70;;;;;;;;;;5008596;28;20510;-61
2022/02/10 14:32:11;;;;;;;9.05;4.88;;;;;;;;;;4989703;28;20031;-61
2022/02/10 14:34:36;;;;;;;7.63;5.15;;;;;;;;;;5009674;28;20202;-61
2022/02/10 15:35:58;;;;;;;10.35;6.30;;;;;;;;;;5030717;28;20025;-62
2022/02/10 16:17:05;;;;;;;11.32;7.65;;;;;;;;;;5025826;28;20082;-62
2022/02/10 16:19:31;;;;;;;12.13;8.50;;;;;;;;;;5033390;28;20116;-62
2022/02/10 16:22:02;;;;;;;9.65;7.60;;;;;;;;;;5019037;28;20085;-61
2022/02/10 16:27:28;;;;;;;10.13;8.15;;;;;;;;;;5021900;28;20070;-61
2022/02/10 16:30:00;;;;;;;10.52;7.95;;;;;;;;;;5031729;28;20112;-62
2022/02/10 16:32:25;;;;;;;11.52;7.75;;;;;;;;;;5024870;28;20463;-63
2022/02/10 16:34:51;;;;;;;10.45;7.65;;;;;;;;;;5021229;28;20021;-62
2022/02/10 16:37:17;;;;;;;10.52;8.40;;;;;;;;;;5026404;28;20064;-61
2022/02/10 16:39:43;;;;;;;10.73;8.35;;;;;;;;;;5023750;28;20228;-62
2022/02/10 16:42:09;;;;;;;12.38;8.73;;;;;;;;;;5023064;28;20092;-63
2022/02/10 16:44:35;;;;;;;11.07;7.93;;;;;;;;;;5019188;28;20041;-61
2022/02/10 16:47:01;;;;;;;13.88;8.68;;;;;;;;;;5032827;28;20025;-61
2022/02/10 16:49:27;;;;;;;12.60;7.65;;;;;;;;;;5032944;28;20075;-61
2022/02/10 16:51:53;;;;;;;12.07;8.02;;;;;;;;;;5020427;28;20089;-62
2022/02/10 16:54:36;;;;;;;10.10;7.70;;;;;;;;;;5022773;28;20164;-62
2022/02/10 16:57:06;;;;;;;13.38;8.30;;;;;;;;;;5020592;28;20045;-62
2022/02/10 16:59:47;;;;;;;12.13;8.30;;;;;;;;;;5032547;28;20057;-61
2022/02/10 17:05:16;;;;;;;12.75;8.63;;;;;;;;;;5029099;28;20496;-62
2022/02/10 17:21:26;;;;;;;12.18;8.65;;;;;;;;;;5010542;28;20096;-61
2022/02/10 17:53:27;;;;;;;11.95;9.70;;;;;;;;;;5006738;28;20104;-62
2022/02/10 17:55:53;;;;;;;12.57;8.75;;;;;;;;;;5008482;28;20112;-63
2022/02/10 17:58:22;;;;;;;12.52;9.32;;;;;;;;;;4999529;28;20442;-63
2022/02/10 18:00:48;;;;;;;11.70;9.23;;;;;;;;;;5002376;28;20485;-64
2022/02/10 18:03:14;;;;;;;11.63;8.90;;;;;;;;;;5002097;28;20109;-63
2022/02/10 18:08:21;;;;;;;12.00;9.40;;;;;;;;;;5021727;28;20418;-63
2022/02/10 18:11:21;;;;;;;12.35;8.57;;;;;;;;;;5012590;28;20022;-63
2022/02/10 18:14:08;;;;;;;12.25;8.98;;;;;;;;;;5017321;28;20029;-63
2022/02/10 18:16:35;;;;;;;12.60;8.25;;;;;;;;;;5029068;28;20481;-63
2022/02/10 18:22:20;;;;;;;11.25;7.97;;;;;;;;;;5023496;28;20112;-63
2022/02/10 18:24:58;;;;;;;11.77;8.45;;;;;;;;;;5020607;28;20045;-65
2022/02/10 19:09:53;;;;;;;10.43;8.85;;;;;;;;;;5025467;28;20474;-62
2022/02/10 19:12:24;;;;;;;11.52;8.63;;;;;;;;;;5011067;28;20055;-62
2022/02/10 19:14:54;;;;;;;10.68;8.68;;;;;;;;;;5028868;28;20052;-62
2022/02/10 19:17:21;;;;;;;11.93;8.95;;;;;;;;;;5028768;28;20022;-62
2022/02/10 19:19:46;;;;;;;9.93;7.97;;;;;;;;;;5028254;28;20033;-62
2022/02/10 19:22:11;;;;;;;12.00;8.88;;;;;;;;;;5022475;28;20064;-62
2022/02/10 19:24:37;;;;;;;10.63;9.20;;;;;;;;;;5031288;28;20034;-62
2022/02/10 19:27:02;;;;;;;10.02;8.13;;;;;;;;;;5029730;28;20029;-62
2022/02/10 19:29:28;;;;;;;11.43;8.77;;;;;;;;;;5023818;28;20545;-64
2022/02/10 19:31:54;;;;;;;10.35;8.25;;;;;;;;;;5027981;28;20556;-63
2022/02/10 19:34:20;;;;;;;10.85;8.23;;;;;;;;;;5022574;28;20065;-62
2022/02/10 19:36:45;;;;;;;10.25;8.23;;;;;;;;;;5024459;28;20502;-63
2022/02/10 19:39:15;;;;;;;13.15;9.07;;;;;;;;;;5016162;28;20030;-62
2022/02/10 19:41:43;;;;;;;11.10;8.48;;;;;;;;;;5015496;28;20590;-63
2022/02/10 19:44:08;;;;;;;12.43;9.70;;;;;;;;;;5028645;28;20044;-63
2022/02/10 19:46:33;;;;;;;12.70;9.70;;;;;;;;;;5015328;28;20030;-62
2022/02/10 19:48:59;;;;;;;10.60;9.43;;;;;;;;;;5011732;28;20018;-62
2022/02/10 19:51:24;;;;;;;11.38;9.10;;;;;;;;;;5019578;28;20025;-62
2022/02/10 19:53:53;;;;;;;12.75;9.48;;;;;;;;;;5023137;28;20088;-61
2022/02/10 19:56:18;;;;;;;11.05;9.52;;;;;;;;;;5027622;28;20111;-61
2022/02/10 19:58:44;;;;;;;15.00;10.60;;;;;;;;;;5035354;28;20451;-61
2022/02/10 20:01:09;;;;;;;13.55;10.02;;;;;;;;;;5019132;28;20095;-63
2022/02/10 20:03:39;;;;;;;15.00;10.98;;;;;;;;;;5032535;28;20040;-62
2022/02/10 20:06:04;;;;;;;14.40;10.65;;;;;;;;;;5027827;28;20540;-62
2022/02/10 20:08:29;;;;;;;12.95;10.45;;;;;;;;;;5026635;28;20033;-63
2022/02/10 20:10:55;;;;;;;14.18;11.05;;;;;;;;;;5032134;28;20045;-61
2022/02/10 20:13:21;;;;;;;17.80;12.10;;;;;;;;;;5023430;28;20436;-63
2022/02/10 20:15:47;;;;;;;14.60;11.75;;;;;;;;;;5022555;28;20037;-62
2022/02/10 20:18:14;;;;;;;14.35;11.32;;;;;;;;;;5022492;28;20030;-61
2022/02/10 20:20:41;;;;;;;16.77;11.85;;;;;;;;;;5035105;28;20527;-62
2022/02/10 20:23:07;;;;;;;13.48;10.90;;;;;;;;;;5019936;28;20488;-60
2022/02/10 20:25:32;;;;;;;17.05;11.60;;;;;;;;;;5020549;28;20029;-62
2022/02/10 20:27:57;;;;;;;13.73;12.15;;;;;;;;;;5028594;28;20037;-62
2022/02/10 20:30:24;;;;;;;17.63;12.73;;;;;;;;;;5019700;28;20076;-61
2022/02/10 20:32:49;;;;;;;14.00;11.82;;;;;;;;;;5024575;28;20424;-62
2022/02/10 20:35:16;;;;;;;17.23;12.63;;;;;;;;;;5022237;28;20098;-62
2022/02/10 20:37:41;;;;;;;16.80;12.00;;;;;;;;;;5026344;28;20045;-61
2022/02/10 20:40:06;;;;;;;16.75;13.02;;;;;;;;;;5024506;28;20346;-63
2022/02/10 20:42:33;;;;;;;18.67;13.98;;;;;;;;;;5020241;28;20040;-62
2022/02/10 20:44:58;;;;;;;20.05;15.23;;;;;;;;;;5018489;28;20211;-62
2022/02/10 20:47:25;;;;;;;20.98;16.00;;;;;;;;;;5033686;28;20478;-63
2022/02/10 20:49:51;;;;;;;16.65;14.32;;;;;;;;;;5024518;28;20022;-62
2022/02/10 20:52:16;;;;;;;18.55;15.65;;;;;;;;;;5012010;28;20050;-61
2022/02/10 20:54:42;;;;;;;18.83;15.75;;;;;;;;;;5017358;28;20045;-62
2022/02/10 20:57:08;;;;;;;22.95;15.40;;;;;;;;;;5018622;28;20466;-63
2022/02/10 20:59:39;;;;;;;17.15;13.85;;;;;;;;;;5025986;28;20411;-62
2022/02/10 21:02:09;;;;;;;17.17;13.43;;;;;;;;;;5025771;28;20041;-63
2022/02/10 21:04:40;;;;;;;15.48;13.38;;;;;;;;;;5025155;28;20036;-62
2022/02/10 21:07:14;;;;;;;17.80;12.80;;;;;;;;;;5022194;28;20075;-61
2022/02/10 21:09:47;;;;;;;16.80;13.00;;;;;;;;;;5032688;28;20025;-61
2022/02/10 21:12:13;;;;;;;17.05;12.65;;;;;;;;;;5024460;28;20025;-62
2022/02/10 21:14:39;;;;;;;18.45;13.13;;;;;;;;;;5025536;28;20032;-62
2022/02/10 21:17:10;;;;;;;18.95;13.88;;;;;;;;;;5018183;28;20022;-62
2022/02/10 21:19:36;;;;;;;15.75;13.30;;;;;;;;;;5025945;28;20033;-57
2022/02/10 21:22:11;;;;;;;16.55;12.85;;;;;;;;;;5025561;28;20075;-63
2022/02/10 21:24:42;;;;;;;17.55;14.77;;;;;;;;;;5025658;28;20021;-61
2022/02/10 21:27:27;;;;;;;16.67;13.07;;;;;;;;;;5022332;28;20094;-62
2022/02/10 21:30:02;;;;;;;15.07;13.15;;;;;;;;;;5023499;28;20440;-63
2022/02/10 21:32:30;;;;;;;17.80;12.30;;;;;;;;;;5023216;28;20132;-63
2022/02/10 21:37:51;;;;;;;15.85;13.30;;;;;;;;;;5022938;28;20037;-62
2022/02/10 21:40:35;;;;;;;15.10;12.07;;;;;;;;;;5022584;28;20053;-61
2022/02/10 21:59:24;;;;;;;18.15;14.25;;;;;;;;;;5023331;28;20037;-62
2022/02/10 22:20:07;;;;;;;16.25;13.13;;;;;;;;;;5020487;28;20039;-61
2022/02/10 22:22:50;;;;;;;17.55;14.45;;;;;;;;;;5007850;28;20112;-63
2022/02/10 22:25:16;;;;;;;16.83;12.23;;;;;;;;;;5009419;28;20261;-62
2022/02/10 22:27:45;;;;;;;15.77;12.15;;;;;;;;;;5021725;28;20084;-61
2022/02/10 22:30:20;;;;;;;13.07;11.02;;;;;;;;;;5010259;28;20124;-61
2022/02/10 22:35:35;;;;;;;13.88;10.82;;;;;;;;;;4998505;28;20041;-62
2022/02/10 22:38:00;;;;;;;14.65;11.13;;;;;;;;;;5025602;28;20032;-62
2022/02/10 22:40:41;;;;;;;13.25;11.23;;;;;;;;;;5014515;28;20120;-62
2022/02/10 22:43:06;;;;;;;12.88;11.48;;;;;;;;;;5009214;28;20071;-62
2022/02/10 22:45:32;;;;;;;14.93;11.95;;;;;;;;;;5008660;28;20030;-63
2022/02/10 22:47:57;;;;;;;13.80;10.43;;;;;;;;;;5017257;28;20037;-60
2022/02/10 22:50:22;;;;;;;12.80;10.40;;;;;;;;;;5031203;28;20075;-62
2022/02/10 22:52:47;;;;;;;12.00;10.65;;;;;;;;;;5025168;28;20037;-63
2022/02/10 22:55:13;;;;;;;11.45;9.95;;;;;;;;;;5031851;28;20091;-62
2022/02/10 22:57:38;;;;;;;12.50;10.27;;;;;;;;;;5031186;28;20032;-62
2022/02/10 23:00:07;;;;;;;11.32;9.90;;;;;;;;;;5031946;28;20033;-63
2022/02/10 23:02:33;;;;;;;13.23;10.45;;;;;;;;;;5037676;28;20052;-62
2022/02/10 23:04:58;;;;;;;13.00;10.23;;;;;;;;;;5035612;28;20434;-62
2022/02/10 23:07:23;;;;;;;12.85;10.25;;;;;;;;;;5043881;28;20029;-62
2022/02/10 23:09:49;;;;;;;13.82;11.63;;;;;;;;;;5022339;28;20040;-61
2022/02/10 23:12:14;;;;;;;11.75;10.50;;;;;;;;;;5033705;28;20030;-62
2022/02/10 23:14:40;;;;;;;11.88;10.52;;;;;;;;;;5031794;28;20022;-61
2022/02/10 23:17:05;;;;;;;13.68;10.13;;;;;;;;;;5031378;28;20436;-62
2022/02/10 23:19:30;;;;;;;12.20;10.98;;;;;;;;;;5043134;28;20452;-61
2022/02/10 23:21:55;;;;;;;13.13;10.55;;;;;;;;;;5035705;28;20076;-62
2022/02/10 23:24:21;;;;;;;11.50;10.25;;;;;;;;;;5042262;28;20009;-62
2022/02/10 23:26:46;;;;;;;13.57;10.95;;;;;;;;;;5038224;28;20488;-63
2022/02/10 23:29:11;;;;;;;9.68;8.68;;;;;;;;;;5047647;28;20013;-62
2022/02/10 23:31:37;;;;;;;10.65;8.30;;;;;;;;;;5035579;28;20037;-62
2022/02/10 23:34:03;;;;;;;5.95;4.50;;;;;;;;;;5045353;28;20033;-63
2022/02/10 23:39:10;;;;;;;3.40;3.10;;;;;;;;;;5034728;28;20057;-62
2022/02/10 23:41:46;;;;;;;2.47;2.28;;;;;;;;;;5039915;28;20485;-61
2022/02/10 23:44:22;;;;;;;4.47;3.15;;;;;;;;;;5034800;28;20030;-62
2022/02/10 23:46:47;;;;;;;2.75;1.88;;;;;;;;;;5034240;28;20037;-63
2022/02/10 23:49:16;;;;;;;3.22;2.28;;;;;;;;;;5034628;28;20025;-62
2022/02/10 23:51:49;;;;;;;5.13;3.88;;;;;;;;;;5033460;28;20033;-62
2022/02/10 23:54:14;;;;;;;2.95;2.50;;;;;;;;;;5030651;28;20509;-62
2022/02/10 23:56:45;;;;;;;4.00;3.20;;;;;;;;;;5037495;28;20068;-64
2022/02/10 23:59:19;;;;;;;5.22;2.30;;;;;;;;;;5022113;28;20112;-61
